sensor_id;sensor_type;location;lat;lon;timestamp;noise_LAeq;noise_LA_min;noise_LA_max;noise_LA01;noise_LA95
69614;Laerm;57159;52.472;4.750;2023-03-01T00:00:12;33.22;32.33;38.51;;
69614;Laerm;57159;52.472;4.750;2023-03-01T00:00:23;33.20;32.17;35.20;;
69614;Laerm;57159;52.472;4.750;2023-03-01T00:00:33;33.27;32.20;37.47;;
69614;Laerm;57159;52.472;4.750;2023-03-01T00:00:43;33.22;32.48;34.26;;
69614;Laerm;57159;52.472;4.750;2023-03-01T00:01:03;33.25;32.39;40.40;;
69614;Laerm;57159;52.472;4.750;2023-03-01T00:01:21;33.29;32.21;39.74;;
69614;Laerm;57159;52.472;4.750;2023-03-01T00:01:31;33.33;32.29;39.96;;
69614;Laerm;57159;52.472;4.750;2023-03-01T00:01:42;33.23;32.08;34.80;;
69614;Laerm;57159;52.472;4.750;2023-03-01T00:01:52;33.32;32.36;38.82;;
69614;Laerm;57159;52.472;4.750;2023-03-01T00:02:03;33.71;32.13;39.55;;
69614;Laerm;57159;52.472;4.750;2023-03-01T00:02:17;33.58;32.22;42.05;;
69614;Laerm;57159;52.472;4.750;2023-03-01T00:02:27;33.18;32.10;34.16;;
69614;Laerm;57159;52.472;4.750;2023-03-01T00:02:38;33.19;31.96;34.14;;
69614;Laerm;57159;52.472;4.750;2023-03-01T00:02:48;33.21;32.15;36.51;;
69614;Laerm;57159;52.472;4.750;2023-03-01T00:02:58;33.20;32.36;34.18;;
69614;Laerm;57159;52.472;4.750;2023-03-01T00:03:08;33.21;32.44;34.16;;
69614;Laerm;57159;52.472;4.750;2023-03-01T00:03:19;33.16;32.12;34.14;;
69614;Laerm;57159;52.472;4.750;2023-03-01T00:03:29;33.19;32.24;34.19;;
69614;Laerm;57159;52.472;4.750;2023-03-01T00:03:39;33.24;32.26;34.36;;
69614;Laerm;57159;52.472;4.750;2023-03-01T00:03:50;33.23;32.27;34.63;;
69614;Laerm;57159;52.472;4.750;2023-03-01T00:04:04;33.23;32.41;34.31;;
69614;Laerm;57159;52.472;4.750;2023-03-01T00:04:17;33.19;32.21;34.28;;
69614;Laerm;57159;52.472;4.750;2023-03-01T00:04:28;33.18;32.35;34.10;;
69614;Laerm;57159;52.472;4.750;2023-03-01T00:04:38;33.17;32.14;34.13;;
69614;Laerm;57159;52.472;4.750;2023-03-01T00:04:48;33.26;32.56;34.14;;
69614;Laerm;57159;52.472;4.750;2023-03-01T00:04:59;33.27;32.35;34.14;;
69614;Laerm;57159;52.472;4.750;2023-03-01T00:05:09;33.29;32.22;37.10;;
69614;Laerm;57159;52.472;4.750;2023-03-01T00:05:19;33.24;32.41;33.99;;
69614;Laerm;57159;52.472;4.750;2023-03-01T00:05:30;33.21;32.17;34.37;;
69614;Laerm;57159;52.472;4.750;2023-03-01T00:05:49;33.24;32.08;35.02;;
69614;Laerm;57159;52.472;4.750;2023-03-01T00:05:59;33.20;32.21;34.15;;
69614;Laerm;57159;52.472;4.750;2023-03-01T00:06:10;33.24;32.24;34.77;;
69614;Laerm;57159;52.472;4.750;2023-03-01T00:06:21;33.26;32.34;35.27;;
69614;Laerm;57159;52.472;4.750;2023-03-01T00:06:31;33.16;32.09;34.12;;
69614;Laerm;57159;52.472;4.750;2023-03-01T00:06:42;33.19;32.32;34.15;;
69614;Laerm;57159;52.472;4.750;2023-03-01T00:06:53;33.22;32.39;34.24;;
69614;Laerm;57159;52.472;4.750;2023-03-01T00:07:03;33.19;32.15;34.16;;
69614;Laerm;57159;52.472;4.750;2023-03-01T00:07:14;33.19;32.36;34.22;;
69614;Laerm;57159;52.472;4.750;2023-03-01T00:07:27;33.18;32.32;34.11;;
69614;Laerm;57159;52.472;4.750;2023-03-01T00:07:37;33.20;32.22;34.06;;
69614;Laerm;57159;52.472;4.750;2023-03-01T00:07:47;33.17;32.29;33.85;;
69614;Laerm;57159;52.472;4.750;2023-03-01T00:07:58;33.18;32.09;34.00;;
69614;Laerm;57159;52.472;4.750;2023-03-01T00:08:08;33.21;32.35;34.05;;
69614;Laerm;57159;52.472;4.750;2023-03-01T00:08:18;33.17;32.14;34.05;;
69614;Laerm;57159;52.472;4.750;2023-03-01T00:08:29;33.24;32.11;35.87;;
69614;Laerm;57159;52.472;4.750;2023-03-01T00:08:40;33.22;32.31;34.18;;
69614;Laerm;57159;52.472;4.750;2023-03-01T00:08:50;33.20;32.31;34.01;;
69614;Laerm;57159;52.472;4.750;2023-03-01T00:09:00;33.18;32.23;33.99;;
69614;Laerm;57159;52.472;4.750;2023-03-01T00:09:11;33.15;32.13;34.34;;
69614;Laerm;57159;52.472;4.750;2023-03-01T00:09:22;33.16;32.07;34.19;;
69614;Laerm;57159;52.472;4.750;2023-03-01T00:09:33;33.21;32.22;34.09;;
69614;Laerm;57159;52.472;4.750;2023-03-01T00:09:43;33.16;31.85;34.19;;
69614;Laerm;57159;52.472;4.750;2023-03-01T00:09:55;33.16;32.19;36.06;;
69614;Laerm;57159;52.472;4.750;2023-03-01T00:10:06;33.15;31.87;33.93;;
69614;Laerm;57159;52.472;4.750;2023-03-01T00:10:16;33.21;32.16;34.10;;
69614;Laerm;57159;52.472;4.750;2023-03-01T00:10:26;33.21;32.07;34.05;;
69614;Laerm;57159;52.472;4.750;2023-03-01T00:10:37;33.17;32.36;33.96;;
69614;Laerm;57159;52.472;4.750;2023-03-01T00:10:47;33.20;32.17;35.59;;
69614;Laerm;57159;52.472;4.750;2023-03-01T00:11:01;33.26;32.30;34.02;;
69614;Laerm;57159;52.472;4.750;2023-03-01T00:11:13;33.17;32.12;34.27;;
69614;Laerm;57159;52.472;4.750;2023-03-01T00:11:24;33.21;32.34;34.22;;
69614;Laerm;57159;52.472;4.750;2023-03-01T00:11:35;33.16;32.14;34.09;;
69614;Laerm;57159;52.472;4.750;2023-03-01T00:11:45;33.22;32.12;34.13;;
69614;Laerm;57159;52.472;4.750;2023-03-01T00:11:58;33.26;32.34;34.17;;
69614;Laerm;57159;52.472;4.750;2023-03-01T00:12:08;33.20;32.37;34.07;;
69614;Laerm;57159;52.472;4.750;2023-03-01T00:12:19;33.19;31.91;34.16;;
69614;Laerm;57159;52.472;4.750;2023-03-01T00:12:31;33.19;32.24;34.09;;
69614;Laerm;57159;52.472;4.750;2023-03-01T00:12:41;33.21;32.44;34.15;;
69614;Laerm;57159;52.472;4.750;2023-03-01T00:12:51;33.21;32.33;34.26;;
69614;Laerm;57159;52.472;4.750;2023-03-01T00:13:01;33.20;32.19;34.19;;
69614;Laerm;57159;52.472;4.750;2023-03-01T00:13:12;33.25;32.36;34.30;;
69614;Laerm;57159;52.472;4.750;2023-03-01T00:13:22;33.21;32.36;34.13;;
69614;Laerm;57159;52.472;4.750;2023-03-01T00:13:33;33.23;32.13;34.22;;
69614;Laerm;57159;52.472;4.750;2023-03-01T00:13:44;33.22;32.13;35.62;;
69614;Laerm;57159;52.472;4.750;2023-03-01T00:13:56;33.29;32.22;35.05;;
69614;Laerm;57159;52.472;4.750;2023-03-01T00:14:07;33.29;32.21;35.27;;
69614;Laerm;57159;52.472;4.750;2023-03-01T00:14:17;33.20;32.34;34.07;;
69614;Laerm;57159;52.472;4.750;2023-03-01T00:14:28;33.16;32.31;34.19;;
69614;Laerm;57159;52.472;4.750;2023-03-01T00:14:38;33.18;32.25;34.12;;
69614;Laerm;57159;52.472;4.750;2023-03-01T00:14:48;33.20;32.23;34.01;;
69614;Laerm;57159;52.472;4.750;2023-03-01T00:14:58;33.18;32.21;34.08;;
69614;Laerm;57159;52.472;4.750;2023-03-01T00:15:09;33.25;32.13;37.31;;
69614;Laerm;57159;52.472;4.750;2023-03-01T00:15:20;33.21;32.17;34.08;;
69614;Laerm;57159;52.472;4.750;2023-03-01T00:15:31;33.24;31.98;34.27;;
69614;Laerm;57159;52.472;4.750;2023-03-01T00:15:41;33.33;32.34;38.08;;
69614;Laerm;57159;52.472;4.750;2023-03-01T00:15:51;33.25;32.47;34.47;;
69614;Laerm;57159;52.472;4.750;2023-03-01T00:16:11;33.29;32.20;35.97;;
69614;Laerm;57159;52.472;4.750;2023-03-01T00:16:31;33.25;32.12;34.86;;
69614;Laerm;57159;52.472;4.750;2023-03-01T00:16:43;33.22;32.15;34.25;;
69614;Laerm;57159;52.472;4.750;2023-03-01T00:16:57;33.24;32.29;34.21;;
69614;Laerm;57159;52.472;4.750;2023-03-01T00:17:08;33.19;32.21;34.08;;
69614;Laerm;57159;52.472;4.750;2023-03-01T00:17:18;33.20;32.17;34.24;;
69614;Laerm;57159;52.472;4.750;2023-03-01T00:17:28;33.23;32.16;34.11;;
69614;Laerm;57159;52.472;4.750;2023-03-01T00:17:39;33.26;32.40;33.97;;
69614;Laerm;57159;52.472;4.750;2023-03-01T00:17:49;33.23;32.08;33.97;;
69614;Laerm;57159;52.472;4.750;2023-03-01T00:17:59;33.24;32.41;34.41;;
69614;Laerm;57159;52.472;4.750;2023-03-01T00:18:10;33.20;32.19;34.28;;
69614;Laerm;57159;52.472;4.750;2023-03-01T00:18:20;33.20;31.74;34.16;;
69614;Laerm;57159;52.472;4.750;2023-03-01T00:18:32;33.16;32.23;33.95;;
69614;Laerm;57159;52.472;4.750;2023-03-01T00:18:42;33.19;32.30;33.97;;
69614;Laerm;57159;52.472;4.750;2023-03-01T00:18:56;33.18;32.10;34.25;;
69614;Laerm;57159;52.472;4.750;2023-03-01T00:19:11;33.19;32.22;34.23;;
69614;Laerm;57159;52.472;4.750;2023-03-01T00:19:22;33.20;32.28;34.63;;
69614;Laerm;57159;52.472;4.750;2023-03-01T00:19:32;33.19;32.21;34.26;;
69614;Laerm;57159;52.472;4.750;2023-03-01T00:19:43;33.23;32.37;35.28;;
69614;Laerm;57159;52.472;4.750;2023-03-01T00:19:53;33.17;32.43;33.98;;
69614;Laerm;57159;52.472;4.750;2023-03-01T00:20:04;33.19;32.15;33.95;;
69614;Laerm;57159;52.472;4.750;2023-03-01T00:20:17;33.17;32.41;34.05;;
69614;Laerm;57159;52.472;4.750;2023-03-01T00:20:28;33.17;32.25;34.09;;
69614;Laerm;57159;52.472;4.750;2023-03-01T00:20:38;33.14;32.16;34.33;;
69614;Laerm;57159;52.472;4.750;2023-03-01T00:20:51;33.21;32.44;34.11;;
69614;Laerm;57159;52.472;4.750;2023-03-01T00:21:04;33.18;32.13;34.03;;
69614;Laerm;57159;52.472;4.750;2023-03-01T00:21:15;33.23;32.23;34.32;;
69614;Laerm;57159;52.472;4.750;2023-03-01T00:21:28;33.26;32.22;36.37;;
69614;Laerm;57159;52.472;4.750;2023-03-01T00:21:38;33.25;32.27;34.15;;
69614;Laerm;57159;52.472;4.750;2023-03-01T00:21:50;33.18;32.29;34.79;;
69614;Laerm;57159;52.472;4.750;2023-03-01T00:22:00;33.18;32.33;34.16;;
69614;Laerm;57159;52.472;4.750;2023-03-01T00:22:10;33.17;32.35;34.05;;
69614;Laerm;57159;52.472;4.750;2023-03-01T00:22:20;33.17;32.19;33.97;;
69614;Laerm;57159;52.472;4.750;2023-03-01T00:22:31;33.13;32.16;34.07;;
69614;Laerm;57159;52.472;4.750;2023-03-01T00:22:41;33.18;32.26;34.10;;
69614;Laerm;57159;52.472;4.750;2023-03-01T00:22:54;33.17;32.36;34.10;;
69614;Laerm;57159;52.472;4.750;2023-03-01T00:23:05;33.16;32.09;34.03;;
69614;Laerm;57159;52.472;4.750;2023-03-01T00:23:15;33.14;32.13;33.94;;
69614;Laerm;57159;52.472;4.750;2023-03-01T00:23:26;33.19;32.40;34.14;;
69614;Laerm;57159;52.472;4.750;2023-03-01T00:23:36;33.20;32.15;34.23;;
69614;Laerm;57159;52.472;4.750;2023-03-01T00:23:47;33.20;32.14;34.00;;
69614;Laerm;57159;52.472;4.750;2023-03-01T00:23:58;33.18;32.31;34.04;;
69614;Laerm;57159;52.472;4.750;2023-03-01T00:24:09;33.15;32.20;34.19;;
69614;Laerm;57159;52.472;4.750;2023-03-01T00:24:19;33.21;32.37;34.45;;
69614;Laerm;57159;52.472;4.750;2023-03-01T00:24:30;33.17;32.31;33.94;;
69614;Laerm;57159;52.472;4.750;2023-03-01T00:24:40;33.22;32.13;34.23;;
69614;Laerm;57159;52.472;4.750;2023-03-01T00:24:50;33.21;32.01;34.27;;
69614;Laerm;57159;52.472;4.750;2023-03-01T00:25:01;33.15;32.12;33.97;;
69614;Laerm;57159;52.472;4.750;2023-03-01T00:25:17;33.15;32.20;34.34;;
69614;Laerm;57159;52.472;4.750;2023-03-01T00:25:27;33.15;32.28;34.12;;
69614;Laerm;57159;52.472;4.750;2023-03-01T00:25:41;33.15;32.32;34.13;;
69614;Laerm;57159;52.472;4.750;2023-03-01T00:25:54;33.17;31.60;34.23;;
69614;Laerm;57159;52.472;4.750;2023-03-01T00:26:12;33.18;32.27;36.69;;
69614;Laerm;57159;52.472;4.750;2023-03-01T00:26:24;33.19;32.03;34.30;;
69614;Laerm;57159;52.472;4.750;2023-03-01T00:26:41;33.16;32.22;36.70;;
69614;Laerm;57159;52.472;4.750;2023-03-01T00:26:54;33.13;32.25;34.47;;
69614;Laerm;57159;52.472;4.750;2023-03-01T00:27:07;33.14;32.04;34.35;;
69614;Laerm;57159;52.472;4.750;2023-03-01T00:27:17;33.17;32.27;34.17;;
69614;Laerm;57159;52.472;4.750;2023-03-01T00:27:28;33.22;32.20;34.66;;
69614;Laerm;57159;52.472;4.750;2023-03-01T00:27:38;33.14;32.15;34.11;;
69614;Laerm;57159;52.472;4.750;2023-03-01T00:27:48;33.16;32.20;34.32;;
69614;Laerm;57159;52.472;4.750;2023-03-01T00:27:59;33.16;32.14;34.07;;
69614;Laerm;57159;52.472;4.750;2023-03-01T00:28:09;33.10;32.22;33.98;;
69614;Laerm;57159;52.472;4.750;2023-03-01T00:28:20;33.16;32.25;34.05;;
69614;Laerm;57159;52.472;4.750;2023-03-01T00:28:31;33.09;32.15;33.74;;
69614;Laerm;57159;52.472;4.750;2023-03-01T00:28:41;33.16;32.23;34.01;;
69614;Laerm;57159;52.472;4.750;2023-03-01T00:28:52;33.10;32.30;33.95;;
69614;Laerm;57159;52.472;4.750;2023-03-01T00:29:03;33.21;32.29;40.79;;
69614;Laerm;57159;52.472;4.750;2023-03-01T00:29:13;33.11;32.23;35.47;;
69614;Laerm;57159;52.472;4.750;2023-03-01T00:29:24;33.07;31.90;33.91;;
69614;Laerm;57159;52.472;4.750;2023-03-01T00:29:38;33.10;31.88;34.48;;
69614;Laerm;57159;52.472;4.750;2023-03-01T00:29:48;33.15;32.06;35.60;;
69614;Laerm;57159;52.472;4.750;2023-03-01T00:29:58;33.17;32.33;35.37;;
69614;Laerm;57159;52.472;4.750;2023-03-01T00:30:09;33.17;32.26;34.63;;
69614;Laerm;57159;52.472;4.750;2023-03-01T00:30:19;33.13;31.97;34.48;;
69614;Laerm;57159;52.472;4.750;2023-03-01T00:30:30;33.14;31.93;33.96;;
69614;Laerm;57159;52.472;4.750;2023-03-01T00:30:40;33.14;32.13;33.98;;
69614;Laerm;57159;52.472;4.750;2023-03-01T00:30:50;33.09;31.83;33.87;;
69614;Laerm;57159;52.472;4.750;2023-03-01T00:31:04;33.11;32.28;34.49;;
69614;Laerm;57159;52.472;4.750;2023-03-01T00:31:19;33.10;32.12;33.84;;
69614;Laerm;57159;52.472;4.750;2023-03-01T00:31:30;33.10;31.75;34.95;;
69614;Laerm;57159;52.472;4.750;2023-03-01T00:31:41;33.32;32.02;40.59;;
69614;Laerm;57159;52.472;4.750;2023-03-01T00:31:51;33.24;32.05;39.40;;
69614;Laerm;57159;52.472;4.750;2023-03-01T00:32:01;33.08;32.04;33.92;;
69614;Laerm;57159;52.472;4.750;2023-03-01T00:32:12;33.13;32.02;34.27;;
69614;Laerm;57159;52.472;4.750;2023-03-01T00:32:22;33.13;32.03;33.98;;
69614;Laerm;57159;52.472;4.750;2023-03-01T00:32:32;33.21;32.00;36.27;;
69614;Laerm;57159;52.472;4.750;2023-03-01T00:32:43;33.27;32.00;35.30;;
69614;Laerm;57159;52.472;4.750;2023-03-01T00:32:53;33.14;32.40;33.95;;
69614;Laerm;57159;52.472;4.750;2023-03-01T00:33:07;33.13;32.15;33.94;;
69614;Laerm;57159;52.472;4.750;2023-03-01T00:33:17;33.12;32.28;34.07;;
69614;Laerm;57159;52.472;4.750;2023-03-01T00:33:27;33.10;32.10;33.74;;
69614;Laerm;57159;52.472;4.750;2023-03-01T00:33:38;33.13;32.22;34.41;;
69614;Laerm;57159;52.472;4.750;2023-03-01T00:33:48;33.13;32.22;34.16;;
69614;Laerm;57159;52.472;4.750;2023-03-01T00:34:04;33.11;32.13;33.99;;
69614;Laerm;57159;52.472;4.750;2023-03-01T00:34:14;33.13;32.21;34.26;;
69614;Laerm;57159;52.472;4.750;2023-03-01T00:34:24;33.12;32.03;34.13;;
69614;Laerm;57159;52.472;4.750;2023-03-01T00:34:35;33.16;32.17;34.24;;
69614;Laerm;57159;52.472;4.750;2023-03-01T00:34:45;33.12;31.97;33.94;;
69614;Laerm;57159;52.472;4.750;2023-03-01T00:35:04;33.10;32.21;34.30;;
69614;Laerm;57159;52.472;4.750;2023-03-01T00:35:15;33.09;32.14;34.11;;
69614;Laerm;57159;52.472;4.750;2023-03-01T00:35:26;33.11;32.31;34.22;;
69614;Laerm;57159;52.472;4.750;2023-03-01T00:35:36;33.13;32.17;34.01;;
69614;Laerm;57159;52.472;4.750;2023-03-01T00:35:47;33.12;32.17;33.96;;
69614;Laerm;57159;52.472;4.750;2023-03-01T00:35:58;33.10;31.92;34.09;;
69614;Laerm;57159;52.472;4.750;2023-03-01T00:36:09;33.12;31.96;34.04;;
69614;Laerm;57159;52.472;4.750;2023-03-01T00:36:20;33.12;32.28;34.07;;
69614;Laerm;57159;52.472;4.750;2023-03-01T00:36:31;33.10;32.14;34.14;;
69614;Laerm;57159;52.472;4.750;2023-03-01T00:36:42;33.10;32.07;34.02;;
69614;Laerm;57159;52.472;4.750;2023-03-01T00:36:52;33.11;32.18;33.95;;
69614;Laerm;57159;52.472;4.750;2023-03-01T00:37:02;33.10;31.95;34.04;;
69614;Laerm;57159;52.472;4.750;2023-03-01T00:37:17;33.09;32.15;34.03;;
69614;Laerm;57159;52.472;4.750;2023-03-01T00:37:28;33.10;32.09;34.19;;
69614;Laerm;57159;52.472;4.750;2023-03-01T00:37:38;33.09;32.28;33.81;;
69614;Laerm;57159;52.472;4.750;2023-03-01T00:37:50;33.07;32.06;33.94;;
69614;Laerm;57159;52.472;4.750;2023-03-01T00:38:08;33.12;31.99;34.14;;
69614;Laerm;57159;52.472;4.750;2023-03-01T00:38:18;33.12;32.14;33.98;;
69614;Laerm;57159;52.472;4.750;2023-03-01T00:38:29;33.13;31.89;33.97;;
69614;Laerm;57159;52.472;4.750;2023-03-01T00:38:41;33.13;32.20;34.15;;
69614;Laerm;57159;52.472;4.750;2023-03-01T00:38:51;33.14;32.27;33.98;;
69614;Laerm;57159;52.472;4.750;2023-03-01T00:39:02;33.10;32.26;34.02;;
69614;Laerm;57159;52.472;4.750;2023-03-01T00:39:17;33.13;32.08;34.14;;
69614;Laerm;57159;52.472;4.750;2023-03-01T00:39:27;33.08;31.68;33.99;;
69614;Laerm;57159;52.472;4.750;2023-03-01T00:39:37;33.08;32.22;34.08;;
69614;Laerm;57159;52.472;4.750;2023-03-01T00:39:48;33.09;32.13;33.96;;
69614;Laerm;57159;52.472;4.750;2023-03-01T00:39:58;33.07;32.24;34.08;;
69614;Laerm;57159;52.472;4.750;2023-03-01T00:40:09;33.05;32.07;33.89;;
69614;Laerm;57159;52.472;4.750;2023-03-01T00:40:20;33.19;31.95;36.76;;
69614;Laerm;57159;52.472;4.750;2023-03-01T00:40:32;33.37;32.17;44.68;;
69614;Laerm;57159;52.472;4.750;2023-03-01T00:40:43;33.07;32.00;33.99;;
69614;Laerm;57159;52.472;4.750;2023-03-01T00:40:53;33.17;32.28;35.19;;
69614;Laerm;57159;52.472;4.750;2023-03-01T00:41:04;33.14;31.83;34.59;;
69614;Laerm;57159;52.472;4.750;2023-03-01T00:41:16;33.11;32.23;34.08;;
69614;Laerm;57159;52.472;4.750;2023-03-01T00:41:26;33.06;32.36;34.09;;
69614;Laerm;57159;52.472;4.750;2023-03-01T00:41:37;33.09;32.28;34.02;;
69614;Laerm;57159;52.472;4.750;2023-03-01T00:41:47;33.09;32.23;33.86;;
69614;Laerm;57159;52.472;4.750;2023-03-01T00:41:57;33.10;32.26;35.10;;
69614;Laerm;57159;52.472;4.750;2023-03-01T00:42:07;33.08;32.11;33.87;;
69614;Laerm;57159;52.472;4.750;2023-03-01T00:42:18;33.07;31.70;34.07;;
69614;Laerm;57159;52.472;4.750;2023-03-01T00:42:28;33.04;32.06;33.89;;
69614;Laerm;57159;52.472;4.750;2023-03-01T00:42:38;33.05;32.11;34.04;;
69614;Laerm;57159;52.472;4.750;2023-03-01T00:42:51;33.08;31.94;33.96;;
69614;Laerm;57159;52.472;4.750;2023-03-01T00:43:02;33.09;32.26;34.07;;
69614;Laerm;57159;52.472;4.750;2023-03-01T00:43:12;33.03;31.85;34.21;;
69614;Laerm;57159;52.472;4.750;2023-03-01T00:43:22;33.07;32.02;33.94;;
69614;Laerm;57159;52.472;4.750;2023-03-01T00:43:33;33.09;32.02;34.15;;
69614;Laerm;57159;52.472;4.750;2023-03-01T00:43:46;33.06;32.08;33.98;;
69614;Laerm;57159;52.472;4.750;2023-03-01T00:43:57;33.10;32.07;34.20;;
69614;Laerm;57159;52.472;4.750;2023-03-01T00:44:07;33.07;32.25;34.18;;
69614;Laerm;57159;52.472;4.750;2023-03-01T00:44:17;33.10;32.20;34.00;;
69614;Laerm;57159;52.472;4.750;2023-03-01T00:44:27;33.03;32.13;34.02;;
69614;Laerm;57159;52.472;4.750;2023-03-01T00:44:38;33.07;32.19;33.97;;
69614;Laerm;57159;52.472;4.750;2023-03-01T00:44:48;33.08;32.13;33.87;;
69614;Laerm;57159;52.472;4.750;2023-03-01T00:44:58;33.04;32.07;33.77;;
69614;Laerm;57159;52.472;4.750;2023-03-01T00:45:12;33.09;32.12;33.97;;
69614;Laerm;57159;52.472;4.750;2023-03-01T00:45:23;33.08;31.96;33.98;;
69614;Laerm;57159;52.472;4.750;2023-03-01T00:45:33;33.07;32.08;34.00;;
69614;Laerm;57159;52.472;4.750;2023-03-01T00:45:46;33.03;32.20;33.99;;
69614;Laerm;57159;52.472;4.750;2023-03-01T00:46:00;33.05;32.20;33.93;;
69614;Laerm;57159;52.472;4.750;2023-03-01T00:46:11;33.09;32.05;34.32;;
69614;Laerm;57159;52.472;4.750;2023-03-01T00:46:23;33.06;32.19;34.32;;
69614;Laerm;57159;52.472;4.750;2023-03-01T00:46:34;33.25;32.18;34.25;;
69614;Laerm;57159;52.472;4.750;2023-03-01T00:46:44;33.12;32.32;33.91;;
69614;Laerm;57159;52.472;4.750;2023-03-01T00:46:54;33.10;32.32;34.20;;
69614;Laerm;57159;52.472;4.750;2023-03-01T00:47:05;33.10;32.32;33.90;;
69614;Laerm;57159;52.472;4.750;2023-03-01T00:47:15;33.07;32.08;33.98;;
69614;Laerm;57159;52.472;4.750;2023-03-01T00:47:28;33.08;32.17;33.99;;
69614;Laerm;57159;52.472;4.750;2023-03-01T00:47:43;33.07;32.00;33.80;;
69614;Laerm;57159;52.472;4.750;2023-03-01T00:47:54;33.10;32.00;34.13;;
69614;Laerm;57159;52.472;4.750;2023-03-01T00:48:04;33.06;32.20;33.92;;
69614;Laerm;57159;52.472;4.750;2023-03-01T00:48:15;33.08;32.11;34.05;;
69614;Laerm;57159;52.472;4.750;2023-03-01T00:48:25;33.11;32.03;33.92;;
69614;Laerm;57159;52.472;4.750;2023-03-01T00:48:36;33.07;32.04;34.48;;
69614;Laerm;57159;52.472;4.750;2023-03-01T00:48:46;33.10;32.03;33.89;;
69614;Laerm;57159;52.472;4.750;2023-03-01T00:48:59;33.07;31.97;34.05;;
69614;Laerm;57159;52.472;4.750;2023-03-01T00:49:12;33.09;32.12;34.01;;
69614;Laerm;57159;52.472;4.750;2023-03-01T00:49:22;33.06;32.11;33.88;;
69614;Laerm;57159;52.472;4.750;2023-03-01T00:49:34;33.07;32.03;33.98;;
69614;Laerm;57159;52.472;4.750;2023-03-01T00:49:44;33.13;32.30;34.12;;
69614;Laerm;57159;52.472;4.750;2023-03-01T00:49:55;33.13;32.13;34.56;;
69614;Laerm;57159;52.472;4.750;2023-03-01T00:50:05;33.10;32.33;34.16;;
69614;Laerm;57159;52.472;4.750;2023-03-01T00:50:16;33.04;32.18;33.91;;
69614;Laerm;57159;52.472;4.750;2023-03-01T00:50:27;33.10;32.08;34.06;;
69614;Laerm;57159;52.472;4.750;2023-03-01T00:50:37;33.09;32.02;34.18;;
69614;Laerm;57159;52.472;4.750;2023-03-01T00:50:48;33.13;32.31;34.17;;
69614;Laerm;57159;52.472;4.750;2023-03-01T00:51:05;33.09;32.23;33.99;;
69614;Laerm;57159;52.472;4.750;2023-03-01T00:51:17;33.10;32.04;33.98;;
69614;Laerm;57159;52.472;4.750;2023-03-01T00:51:28;33.12;32.19;34.05;;
69614;Laerm;57159;52.472;4.750;2023-03-01T00:51:38;33.13;32.13;33.95;;
69614;Laerm;57159;52.472;4.750;2023-03-01T00:51:51;33.13;32.21;34.00;;
69614;Laerm;57159;52.472;4.750;2023-03-01T00:52:01;33.07;31.99;33.88;;
69614;Laerm;57159;52.472;4.750;2023-03-01T00:52:12;33.13;32.11;33.98;;
69614;Laerm;57159;52.472;4.750;2023-03-01T00:52:22;33.09;32.06;33.93;;
69614;Laerm;57159;52.472;4.750;2023-03-01T00:52:32;33.11;32.08;33.99;;
69614;Laerm;57159;52.472;4.750;2023-03-01T00:52:42;33.05;32.14;33.83;;
69614;Laerm;57159;52.472;4.750;2023-03-01T00:52:54;33.11;32.18;34.09;;
69614;Laerm;57159;52.472;4.750;2023-03-01T00:53:04;33.06;32.26;34.10;;
69614;Laerm;57159;52.472;4.750;2023-03-01T00:53:15;33.06;31.98;33.89;;
69614;Laerm;57159;52.472;4.750;2023-03-01T00:53:25;33.11;32.14;33.88;;
69614;Laerm;57159;52.472;4.750;2023-03-01T00:53:35;33.10;32.18;34.91;;
69614;Laerm;57159;52.472;4.750;2023-03-01T00:53:54;33.15;32.11;33.99;;
69614;Laerm;57159;52.472;4.750;2023-03-01T00:54:09;33.10;32.08;33.97;;
69614;Laerm;57159;52.472;4.750;2023-03-01T00:54:19;33.11;32.05;34.01;;
69614;Laerm;57159;52.472;4.750;2023-03-01T00:54:30;33.13;32.28;33.95;;
69614;Laerm;57159;52.472;4.750;2023-03-01T00:54:43;33.17;32.33;33.89;;
69614;Laerm;57159;52.472;4.750;2023-03-01T00:54:57;33.12;32.16;34.16;;
69614;Laerm;57159;52.472;4.750;2023-03-01T00:55:10;33.10;32.16;34.02;;
69614;Laerm;57159;52.472;4.750;2023-03-01T00:55:22;33.09;32.07;34.03;;
69614;Laerm;57159;52.472;4.750;2023-03-01T00:55:33;33.09;32.17;33.84;;
69614;Laerm;57159;52.472;4.750;2023-03-01T00:55:43;33.11;32.23;34.07;;
69614;Laerm;57159;52.472;4.750;2023-03-01T00:55:53;33.15;31.93;33.98;;
69614;Laerm;57159;52.472;4.750;2023-03-01T00:56:04;33.07;32.09;34.09;;
69614;Laerm;57159;52.472;4.750;2023-03-01T00:56:14;33.12;32.26;33.87;;
69614;Laerm;57159;52.472;4.750;2023-03-01T00:56:25;33.09;32.18;33.82;;
69614;Laerm;57159;52.472;4.750;2023-03-01T00:56:36;33.08;32.12;34.00;;
69614;Laerm;57159;52.472;4.750;2023-03-01T00:56:46;33.07;32.20;33.99;;
69614;Laerm;57159;52.472;4.750;2023-03-01T00:56:59;33.08;31.99;33.96;;
69614;Laerm;57159;52.472;4.750;2023-03-01T00:57:09;33.11;32.06;33.97;;
69614;Laerm;57159;52.472;4.750;2023-03-01T00:57:19;33.08;32.20;33.97;;
69614;Laerm;57159;52.472;4.750;2023-03-01T00:57:32;33.09;32.03;33.89;;
69614;Laerm;57159;52.472;4.750;2023-03-01T00:57:46;33.10;32.01;34.32;;
69614;Laerm;57159;52.472;4.750;2023-03-01T00:58:03;33.08;32.10;33.91;;
69614;Laerm;57159;52.472;4.750;2023-03-01T00:58:16;33.08;32.01;34.02;;
69614;Laerm;57159;52.472;4.750;2023-03-01T00:58:27;33.07;32.27;34.12;;
69614;Laerm;57159;52.472;4.750;2023-03-01T00:58:37;33.06;31.95;33.86;;
69614;Laerm;57159;52.472;4.750;2023-03-01T00:58:48;33.07;32.10;34.00;;
69614;Laerm;57159;52.472;4.750;2023-03-01T00:58:58;33.06;32.00;34.16;;
69614;Laerm;57159;52.472;4.750;2023-03-01T00:59:08;33.04;32.16;34.11;;
69614;Laerm;57159;52.472;4.750;2023-03-01T00:59:19;33.05;32.16;34.28;;
69614;Laerm;57159;52.472;4.750;2023-03-01T00:59:29;33.11;32.15;34.05;;
69614;Laerm;57159;52.472;4.750;2023-03-01T00:59:42;33.05;32.12;33.92;;
69614;Laerm;57159;52.472;4.750;2023-03-01T00:59:52;33.09;32.19;34.22;;
69614;Laerm;57159;52.472;4.750;2023-03-01T01:00:06;33.07;32.05;34.12;;
69614;Laerm;57159;52.472;4.750;2023-03-01T01:00:17;33.07;32.14;33.77;;
69614;Laerm;57159;52.472;4.750;2023-03-01T01:00:28;33.11;32.27;33.95;;
69614;Laerm;57159;52.472;4.750;2023-03-01T01:00:38;33.04;32.04;34.00;;
69614;Laerm;57159;52.472;4.750;2023-03-01T01:00:48;33.07;31.99;34.24;;
69614;Laerm;57159;52.472;4.750;2023-03-01T01:00:59;33.08;32.13;34.17;;
69614;Laerm;57159;52.472;4.750;2023-03-01T01:01:14;33.07;32.26;34.00;;
69614;Laerm;57159;52.472;4.750;2023-03-01T01:01:28;33.08;31.81;34.49;;
69614;Laerm;57159;52.472;4.750;2023-03-01T01:01:41;33.08;31.83;34.12;;
69614;Laerm;57159;52.472;4.750;2023-03-01T01:01:52;33.07;32.07;34.52;;
69614;Laerm;57159;52.472;4.750;2023-03-01T01:02:03;33.05;32.05;33.83;;
69614;Laerm;57159;52.472;4.750;2023-03-01T01:02:16;33.07;31.94;33.83;;
69614;Laerm;57159;52.472;4.750;2023-03-01T01:02:26;33.07;32.12;33.90;;
69614;Laerm;57159;52.472;4.750;2023-03-01T01:02:39;33.09;32.24;34.00;;
69614;Laerm;57159;52.472;4.750;2023-03-01T01:02:50;33.08;31.88;34.37;;
69614;Laerm;57159;52.472;4.750;2023-03-01T01:03:00;33.07;32.28;34.01;;
69614;Laerm;57159;52.472;4.750;2023-03-01T01:03:10;33.07;32.17;34.07;;
69614;Laerm;57159;52.472;4.750;2023-03-01T01:03:21;33.08;32.22;34.04;;